Espace membre
Imprimable
Houffalize, 27-29/04/2018, BEL - Roc d'Ardenne
Liste des rapports > Rando Roc Night - Classement
Recherche: Page: [1]
114 Entrées
 
Les réclamations ne sont plus acceptées, les résultats sont considérés comme définitifs.
RangNrNomAgeIOCEquipeTempsTkmMoy.ScrLocalité
Vos photos gr?ce ? Sportograf1.5144CARA Remy20BEL1:02:572:33 23.641BASTOGNE
Vos photos gr?ce ? Sportograf2.10014VAN HOOVELS Kevin33BELMTB TEAM LANGDORP1:03:042:33 23.602SINT-AMANDSBERG
Vos photos gr?ce ? Sportograf3.10004LATOURTE Maxime24FRAVELO CLUB ORNANS1:03:492:35 23.323GIVRAUVAL
Vos photos gr?ce ? Sportograf4.10031GUILMIN Adrien28BELBIKE4LIFE1:06:312:41 22.374WAHA
Vos photos gr?ce ? Sportograf5.10073MILAN Levecke22BELBEACHBIKERS VZW1:06:342:42 22.355OOSTENDE
Vos photos gr?ce ? Sportograf6.10035JAMAIGNE Jean-Philippe40BELPROMOVÉLO/NUTRI-BAY.COM1:06:422:42 22.316ARLON
Vos photos gr?ce ? Sportograf7.5020VAN TILT Nils30BELTEL & CO CYCLING TEAM1:07:202:43 22.107EVERBERG
Vos photos gr?ce ? Sportograf8.5009ANTHUENIS Yenzy20BELDEBO-BIKES OLYMPIA1:07:202:43 22.108DAKNAM
Vos photos gr?ce ? Sportograf9.10018HUYSENTRUYT Bram25BELBIKESENSATION1:08:072:45 21.859WORTEGEM
Vos photos gr?ce ? Sportograf10.5017ROME Nicolas18BELTEAM 123 VTT1:08:102:45 21.8310GOUVY
Vos photos gr?ce ? Sportograf11.10037VAN PUTTEN Derk-Jan27NLDATB VERENIGING OLDEBROEK1:08:322:46 21.7211OLDEBROEK
Vos photos gr?ce ? Sportograf12.5140JONKEAU Antoine17BEL1:09:342:49 21.3912HOUFFALIZE
Vos photos gr?ce ? Sportograf13.5143CARA Boris24BEL1:10:252:51 21.1313HOUFFALIZE
Vos photos gr?ce ? Sportograf14.5023KNODEN Diego16BELTEAM 123VTT1:10:282:51 21.1214HOUFFALIZE
Vos photos gr?ce ? Sportograf15.10030DEVOLDER Jonathan27BEL1:11:132:53 20.8915KORTRIJK
Vos photos gr?ce ? Sportograf16.10045GOUSSEAU Romain32FRA1:11:382:54 20.7716THIERS SUR THÈVE
Vos photos gr?ce ? Sportograf17.10002SARENS Bastien21BELTEAM VTT 3 CANAUX1:12:282:56 20.5317BLATON
Vos photos gr?ce ? Sportograf18.10040LAURENT Axel24BEL1:12:322:56 20.5218ARLON
Vos photos gr?ce ? Sportograf19.5039COPUS Nathan17BELREDBIKERS1:13:052:57 20.3619VAUX/SUR/SÛRE
Vos photos gr?ce ? Sportograf20.10047TACK Gaël31BELWTOS DELFT1:13:082:57 20.3520PIJNACKER
Vos photos gr?ce ? Sportograf21.10069WHITTINGTON Glen35GBRTHE AEIGHT BIKE COLLECTIV1:13:212:58 20.2921GROOMBRIDGE
Vos photos gr?ce ? Sportograf22.10019LHERMITE Emmanuel41FRACCVTT BADONVILLER1:13:372:59 20.2122ESSEY LES NANCY
Vos photos gr?ce ? Sportograf23.10001OTTO Sébastien40BELKTM HOUFFALIZE1:13:402:59 20.2023HOUFFALIZE
Vos photos gr?ce ? Sportograf24.10006THORÉ Floris23BEL1:15:033:02 19.8324RENINGELST
Vos photos gr?ce ? Sportograf25.10010VAN DER WOERD Heike45NLDNVT1:15:083:02 19.8125AMSTELVEEN
Vos photos gr?ce ? Sportograf26.10005VERSCHUERE Seppe24BEL1:15:213:03 19.7526MOERKERKE
Vos photos gr?ce ? Sportograf27.10071DE BEYTER Willem32BEL1:15:213:03 19.7527GAVERE
Vos photos gr?ce ? Sportograf28.10065WALSCHAERTS Tim37BEL1:15:273:03 19.7328DUFFEL
Vos photos gr?ce ? Sportograf29.10020DEDION Dimitri30BELBTWIN RACING TEAM1:15:303:03 19.7129ETALLE
Vos photos gr?ce ? Sportograf30.10017GEURS Steven45BELINDIVIDUEEL1:16:383:06 19.4230WATERVLIET
Vos photos gr?ce ? Sportograf31.5031DARCOURT Tony23FRAESARQUES1:16:583:07 19.3431ARQUES
Vos photos gr?ce ? Sportograf32.10060SOARES DA COSTA David28PRT1:17:213:08 19.2432THIEUSIES
Vos photos gr?ce ? Sportograf33.5142KLEE Nicolas24BEL1:17:443:09 19.1433VIRTON
Vos photos gr?ce ? Sportograf34.10055COOLS Jo40BEL1:17:523:09 19.1134BALEN
Vos photos gr?ce ? Sportograf35.10056LODEWIJCKX Robby34BELCAROSERIE COOLS1:17:533:09 19.1135OLMEN
Vos photos gr?ce ? Sportograf36.10068DIAZ Nicolas24FRA1:19:073:12 18.8136ST FOLQUIN
Vos photos gr?ce ? Sportograf37.10063DEKKERS Rob34BEL1:19:303:13 18.7237BALEN
Vos photos gr?ce ? Sportograf38.10039TOP Basil21BELWAASLANDMTBSCHOOL1:19:303:13 18.7238SCHORISSE
Vos photos gr?ce ? Sportograf39.10064VANGENECHTEN Gert42BEL1:19:313:13 18.7239MOL
Vos photos gr?ce ? Sportograf40.10033POISSON Gaël34FRA1:19:363:13 18.6940LA BAUME DE TRANSIT
Vos photos gr?ce ? Sportograf41.5030VAN LOOY Zinni16BELTEAM WILIER FORCE1:19:483:14 18.6541OLEN
Vos photos gr?ce ? Sportograf42.5029DAEMS Wout16BELTEAM WILIER FORCE1:19:483:14 18.6542MEERHOUT
Vos photos gr?ce ? Sportograf43.10050VERAERT Flor57BELBBC1:20:553:16 18.3943PULDERBOS
Vos photos gr?ce ? Sportograf44.10038LEGROS Melvin33BELPITAU TEAM1:21:043:17 18.3644LANDELIES
Vos photos gr?ce ? Sportograf45.10009HARLEZ Maxime20BELTEAM VTTT DES 3 CANAUX1:21:093:17 18.3445TERTRE
Vos photos gr?ce ? Sportograf46.5018FOUQUAET Tom39BELFILIP SPORT1:21:153:17 18.3246KORTENBERG
Vos photos gr?ce ? Sportograf47.10028MEYNAERTS Beny53BELINDIVIDUEEL1:22:393:20 18.0147AARSCHOT
Vos photos gr?ce ? Sportograf48.10072WITTEVRONGEL Mathias30BEL1:22:563:21 17.9448GRAMMENE
Vos photos gr?ce ? Sportograf49.10023HARRIS Peter61GBRPEARCE CYCLES1:23:013:21 17.9349DERBY
Vos photos gr?ce ? Sportograf50.10016LEBAILLY Martin31BEL1:23:013:21 17.9350MONS
Vos photos gr?ce ? Sportograf51.5163LANGEDOCK Mathieu Noel34BEL1:23:283:22 17.8351LEDEGEM
Vos photos gr?ce ? Sportograf52.10036DALING Robin34NLDCYCLOTEAM.NL1:23:483:23 17.7652UDEN
Vos photos gr?ce ? Sportograf53.10061BLERIOT Mathieu27FRA1:23:513:23 17.7553BEAUVAIS
Vos photos gr?ce ? Sportograf54.10066SEVENOO Francis47BELVC DE STATIE1:23:523:23 17.7554EEKLO
Vos photos gr?ce ? Sportograf55.10048GERMAIN Jérome37FRAIMAGINE FOR MARGO1:24:073:24 17.6955NOROY
Vos photos gr?ce ? Sportograf56.10057VAN BULCK Filip37BEL1:24:233:25 17.6456BOOM
Vos photos gr?ce ? Sportograf57.10054GILLES Léonard27BEL1:24:513:26 17.5457HOUFFALIZE
Vos photos gr?ce ? Sportograf58.10059CLAEIJS Dirk45BELROYAL ANTWERP BICICLECLUB1:26:313:30 17.2058BRASSCHAAT
Vos photos gr?ce ? Sportograf59.5008LAMBERTZ Daniel36DEUCOFFEE & CHAINRINGS1:27:493:33 16.9459ERKELENZ
Vos photos gr?ce ? Sportograf60.10044RENARD Mathieu31FRA1:27:523:33 16.9460PONTARMÉ
Vos photos gr?ce ? Sportograf61.10058ROUSSEAU Filip34BEL1:28:023:33 16.9161AARTSELAAR
Vos photos gr?ce ? Sportograf62.10041MARTIN Yohann34FRA1:28:053:34 16.9062DOMPCEVRIN
Vos photos gr?ce ? Sportograf63.10029BAERT Claude35BEL1:28:093:34 16.8863DEERLIJK
Vos photos gr?ce ? Sportograf64.10046VANDENBERGH Bart45BEL1:28:523:35 16.7564MOL
Vos photos gr?ce ? Sportograf65.10074MEYER Olivier48FRA1:29:083:36 16.7066ST PAUL EN CHABLAIS
Vos photos gr?ce ? Sportograf66.5146HOSKENS Johan47BEL1:30:193:39 16.4867SINT-NIKLAAS
Vos photos gr?ce ? Sportograf67.5145VAN REMOORTEL Marc Clemence41BEL1:30:513:40 16.3868TEMSE
Vos photos gr?ce ? Sportograf68.5162DE NIJS René58NLD1:31:113:41 16.3269NL WARMENHUIZEN
Vos photos gr?ce ? Sportograf69.5141VANDENBROUCKE Arne Sylvère24BEL1:32:283:44 16.0970WAREGEM
Vos photos gr?ce ? Sportograf70.10067REYMANN Louis22FRA1:32:333:44 16.0871ROCROI
Vos photos gr?ce ? Sportograf71.5005PIERRET Jocelyn26BEL1:32:513:45 16.0372VAUX-SUR-SÛRE
Vos photos gr?ce ? Sportograf72.10032DEBOFFLE Germain29FRALES ROC'OEURS1:33:123:46 15.9773DUNKERQUE
Vos photos gr?ce ? Sportograf73.5011DUBUISSON Louis14BELKTM HOUFFALIZE1:34:113:48 15.8074HOUFFALIZE
Vos photos gr?ce ? Sportograf74.5155APPEL Bjww52NLD1:34:533:50 15.6875SPANBROEK
Vos photos gr?ce ? Sportograf75.5013SCHELFHOUT Chris52BEL1:35:243:51 15.6076TERALFENE
Vos photos gr?ce ? Sportograf76.5161HYENNE Jean-Christophe48FRA1:36:553:55 15.3577TEMPLEUVE
Vos photos gr?ce ? Sportograf77.5160CLOESEN Francis34BEL1:37:253:56 15.2778LA ROCHE
Vos photos gr?ce ? Sportograf78.5001DERDEYN Mathieu27BEL1:39:254:01 14.9779VAUX-SUR-SÛRE
Vos photos gr?ce ? Sportograf79.5154LOUIS Geoffray38BEL1:40:344:04 14.8081BASTOGNE
Vos photos gr?ce ? Sportograf80.5038CORDIER Michael39BEL1:41:354:06 14.6582OOSTENDE
Vos photos gr?ce ? Sportograf81.5036DE WIT Thijs27BELDE EDDY'S1:42:534:09 14.4683BAAL
Vos photos gr?ce ? Sportograf82.10070PUECHBERTY Philippe55FRAAS CREDITFONCIER1:45:104:15 14.1584BRY SUR MARNE
Vos photos gr?ce ? Sportograf83.5159GOOSSE Nicolas29BEL1:45:234:15 14.1285BASTOGNE
Vos photos gr?ce ? Sportograf84.10027VANSTEENKISTE Arne35BEL1:47:384:21 13.8387ROESELARE
Vos photos gr?ce ? Sportograf85.10025DEBUCQUOY Thibaut38BEL1:49:384:26 13.5788STADEN
Vos photos gr?ce ? Sportograf86.5156LEJEUNE Noa Pascal16BEL1:51:244:30 13.3690GOUVY
Vos photos gr?ce ? Sportograf87.5010GASPARD Florent15BELKTM HOUFFALIZE1:51:444:31 13.3291HOUFFALIZE
Vos photos gr?ce ? Sportograf88.5006VAN GOETHEM Hans44BEL'T SCHUIMEND TANDWIEL1:52:044:32 13.2892HAMME
Vos photos gr?ce ? Sportograf89.5004SIBRET Aurélien25BEL1:58:474:48 12.5393VAUX-SUR-SÛRE
Vos photos gr?ce ? Sportograf90.5157EVRARD Rudy31FRA2:01:354:55 12.2494ESTREUX
Vos photos gr?ce ? Sportograf91.5147CORMAND Emilien12FRA2:02:494:58 12.1295JUGON LES LACS
Vos photos gr?ce ? Sportograf92.5148CORMAND Mickael37FRA2:02:524:58 12.1196JUGON LES LACS
Vos photos gr?ce ? Sportograf93.10012OREEL Birger41BELCYCLOCROSS TEAM-MJWOOD2:02:594:58 12.1097ALVERINGEM
Vos photos gr?ce ? Sportograf94.10011DE MAERE Jelle23BELTEAM MAHIEU KONA VANDERME2:03:004:58 12.1098ROESELARE
Vos photos gr?ce ? Sportograf95.5033RAOUL Ellis48NLD2:08:385:12 11.5799ROTTERDAM
Vos photos gr?ce ? Sportograf96.5026WIJNTUIN Tristen35NLD2:08:395:12 11.57100ROTTERDAM
Vos photos gr?ce ? Sportograf97.5022CHARPIOT Sébastien44FRAASCFF2:09:405:14 11.48101GOURNAY SUR MARNE
Vos photos gr?ce ? Sportograf98.5032HUGON Benoit32FRA2:10:125:15 11.43102CLAIRMARAIS
Vos photos gr?ce ? Sportograf99.10022MUNRO Mark33NLD2:10:515:17 11.37103EDE
Vos photos gr?ce ? Sportograf100.5028DE LAAT Bas34NLD2:10:525:17 11.37104BREDA
Vos photos gr?ce ? Sportograf101.5027LAGAS Tim34NLD2:10:545:17 11.37105ARNHEM
Vos photos gr?ce ? Sportograf102.10021ALDUS Joost40NLD2:10:555:17 11.37106VELP
Vos photos gr?ce ? Sportograf103.5019NUSSELEIN Eric37NLD2:10:565:17 11.37107ARNHEM
Vos photos gr?ce ? Sportograf104.1205NR 1205 XXX2:12:335:21 11.23108
Vos photos gr?ce ? Sportograf105.5034PHILIPS Cedric35BEL2:15:015:27 11.02109NIEUWPOORT
Vos photos gr?ce ? Sportograf106.5007SZOSTAK Dimitri46BEL2:15:015:27 11.02110OOSTDUINKERKE
Vos photos gr?ce ? Sportograf107.10007DE-VOS Sébastien38FRALES RENARDS DES SABLES2:16:385:31 10.89111FLINES LES RACHES
Vos photos gr?ce ? Sportograf108.5014DELCROIX Pierre-François15FRALES RENARDS DES SABLES2:16:395:31 10.89112FLINES LES RACHES
Vos photos gr?ce ? Sportograf109.10008LENGLIN Didier57FRALES RENARDS DES SABLES2:16:395:31 10.89113FLINES LES RACHES
Vos photos gr?ce ? Sportograf110.5015CARNEAU Richard15FRALES RENARDS DES SABLES2:19:065:37 10.70114COUTICHES
Vos photos gr?ce ? Sportograf111.5025SMITS Erwin36NLD2:23:075:47 10.40116ROTTERDAM
Vos photos gr?ce ? Sportograf112.5016CAMARA Eric51FRA2:38:536:25 9.37117SAINT MAURICE
Vos photos gr?ce ? Sportograf113.5158DAMBIERMONT Manuel24BEL2:56:157:07 8.44118MORTIER
Vos photos gr?ce ? SportografDNF10062MERMANS Bram33BELDESSEL
DNF: abandon; DSQ: disqualifié; Vitesse en km/h
Page: [1]